sensor_id;sensor_type;location;lat;lon;timestamp;noise_LAeq;noise_LA_min;noise_LA_max;noise_LA01;noise_LA95
71805;Laerm;59654;52.216;5.616;2024-02-21T00:00:09;44.24;36.93;56.86;;
71805;Laerm;59654;52.216;5.616;2024-02-21T00:00:43;43.12;35.16;56.82;;
71805;Laerm;59654;52.216;5.616;2024-02-21T00:01:17;42.48;34.52;56.93;;
71805;Laerm;59654;52.216;5.616;2024-02-21T00:01:49;42.23;34.72;56.84;;
71805;Laerm;59654;52.216;5.616;2024-02-21T00:02:21;44.38;35.99;57.07;;
71805;Laerm;59654;52.216;5.616;2024-02-21T00:02:52;42.37;34.59;56.91;;
71805;Laerm;59654;52.216;5.616;2024-02-21T00:03:23;42.85;34.04;57.40;;
71805;Laerm;59654;52.216;5.616;2024-02-21T00:03:54;41.78;33.52;56.88;;
71805;Laerm;59654;52.216;5.616;2024-02-21T00:04:25;44.14;33.35;57.07;;
71805;Laerm;59654;52.216;5.616;2024-02-21T00:04:56;42.51;33.53;57.80;;
71805;Laerm;59654;52.216;5.616;2024-02-21T00:05:27;42.46;33.52;56.90;;
71805;Laerm;59654;52.216;5.616;2024-02-21T00:05:58;42.31;34.00;56.85;;
71805;Laerm;59654;52.216;5.616;2024-02-21T00:06:29;41.13;34.02;56.87;;
71805;Laerm;59654;52.216;5.616;2024-02-21T00:07:00;42.08;33.93;58.06;;
71805;Laerm;59654;52.216;5.616;2024-02-21T00:07:30;42.13;34.05;56.83;;
71805;Laerm;59654;52.216;5.616;2024-02-21T00:08:02;42.28;34.71;56.86;;
71805;Laerm;59654;52.216;5.616;2024-02-21T00:08:39;42.19;34.50;56.90;;
71805;Laerm;59654;52.216;5.616;2024-02-21T00:09:10;43.28;34.49;57.26;;
71805;Laerm;59654;52.216;5.616;2024-02-21T00:09:42;41.24;34.35;56.83;;
71805;Laerm;59654;52.216;5.616;2024-02-21T00:10:14;42.70;33.99;58.72;;
71805;Laerm;59654;52.216;5.616;2024-02-21T00:10:51;43.49;35.00;59.00;;
71805;Laerm;59654;52.216;5.616;2024-02-21T00:11:22;42.21;34.29;57.77;;
71805;Laerm;59654;52.216;5.616;2024-02-21T00:11:59;43.58;34.40;56.92;;
71805;Laerm;59654;52.216;5.616;2024-02-21T00:12:31;43.58;34.27;59.42;;
71805;Laerm;59654;52.216;5.616;2024-02-21T00:13:02;41.84;34.59;56.90;;
71805;Laerm;59654;52.216;5.616;2024-02-21T00:13:33;42.38;34.18;59.81;;
71805;Laerm;59654;52.216;5.616;2024-02-21T00:14:05;43.04;35.39;56.94;;
71805;Laerm;59654;52.216;5.616;2024-02-21T00:14:36;43.22;34.69;56.87;;
71805;Laerm;59654;52.216;5.616;2024-02-21T00:15:10;42.98;34.46;56.96;;
71805;Laerm;59654;52.216;5.616;2024-02-21T00:15:40;42.52;34.93;57.11;;
71805;Laerm;59654;52.216;5.616;2024-02-21T00:16:11;42.20;35.05;56.87;;
71805;Laerm;59654;52.216;5.616;2024-02-21T00:16:44;42.21;34.50;56.88;;
71805;Laerm;59654;52.216;5.616;2024-02-21T00:17:14;43.08;34.09;56.88;;
71805;Laerm;59654;52.216;5.616;2024-02-21T00:17:47;42.55;34.55;57.09;;
71805;Laerm;59654;52.216;5.616;2024-02-21T00:18:19;41.05;34.01;56.86;;
71805;Laerm;59654;52.216;5.616;2024-02-21T00:18:50;43.02;34.71;56.87;;
71805;Laerm;59654;52.216;5.616;2024-02-21T00:19:23;43.44;35.25;56.89;;
71805;Laerm;59654;52.216;5.616;2024-02-21T00:19:54;43.40;36.23;56.98;;
71805;Laerm;59654;52.216;5.616;2024-02-21T00:20:25;42.39;34.36;56.87;;
71805;Laerm;59654;52.216;5.616;2024-02-21T00:20:56;42.48;34.38;58.22;;
71805;Laerm;59654;52.216;5.616;2024-02-21T00:21:27;42.54;33.92;57.12;;
71805;Laerm;59654;52.216;5.616;2024-02-21T00:21:58;42.77;33.47;56.92;;
71805;Laerm;59654;52.216;5.616;2024-02-21T00:22:29;41.88;34.04;56.82;;
71805;Laerm;59654;52.216;5.616;2024-02-21T00:23:02;42.09;34.25;56.86;;
71805;Laerm;59654;52.216;5.616;2024-02-21T00:23:33;43.05;34.01;57.08;;
71805;Laerm;59654;52.216;5.616;2024-02-21T00:24:05;43.48;33.88;56.88;;
71805;Laerm;59654;52.216;5.616;2024-02-21T00:24:37;42.52;34.14;56.87;;
71805;Laerm;59654;52.216;5.616;2024-02-21T00:25:10;42.74;33.22;56.88;;
71805;Laerm;59654;52.216;5.616;2024-02-21T00:25:41;42.40;33.02;56.87;;
71805;Laerm;59654;52.216;5.616;2024-02-21T00:26:13;41.68;32.93;56.87;;
71805;Laerm;59654;52.216;5.616;2024-02-21T00:26:44;42.99;34.55;58.81;;
71805;Laerm;59654;52.216;5.616;2024-02-21T00:27:15;42.22;34.07;58.19;;
71805;Laerm;59654;52.216;5.616;2024-02-21T00:27:46;42.58;33.62;58.24;;
71805;Laerm;59654;52.216;5.616;2024-02-21T00:28:17;42.17;33.19;56.85;;
71805;Laerm;59654;52.216;5.616;2024-02-21T00:28:48;42.63;32.95;57.07;;
71805;Laerm;59654;52.216;5.616;2024-02-21T00:29:19;41.84;33.66;59.54;;
71805;Laerm;59654;52.216;5.616;2024-02-21T00:29:52;41.76;33.55;58.37;;
71805;Laerm;59654;52.216;5.616;2024-02-21T00:30:23;42.35;34.08;56.90;;
71805;Laerm;59654;52.216;5.616;2024-02-21T00:30:54;42.27;33.66;56.84;;
71805;Laerm;59654;52.216;5.616;2024-02-21T00:31:25;42.20;33.97;56.84;;
71805;Laerm;59654;52.216;5.616;2024-02-21T00:31:56;42.62;33.84;56.85;;
71805;Laerm;59654;52.216;5.616;2024-02-21T00:32:26;40.85;34.29;56.81;;
71805;Laerm;59654;52.216;5.616;2024-02-21T00:32:58;41.26;33.20;57.03;;
71805;Laerm;59654;52.216;5.616;2024-02-21T00:33:29;42.95;33.03;56.90;;
71805;Laerm;59654;52.216;5.616;2024-02-21T00:34:00;42.50;32.66;56.90;;
71805;Laerm;59654;52.216;5.616;2024-02-21T00:34:32;43.31;32.83;56.91;;
71805;Laerm;59654;52.216;5.616;2024-02-21T00:35:04;41.83;32.13;56.83;;
71805;Laerm;59654;52.216;5.616;2024-02-21T00:35:35;41.77;32.62;59.07;;
71805;Laerm;59654;52.216;5.616;2024-02-21T00:36:07;39.82;33.12;56.85;;
71805;Laerm;59654;52.216;5.616;2024-02-21T00:36:38;42.52;33.13;56.87;;
71805;Laerm;59654;52.216;5.616;2024-02-21T00:37:09;43.00;34.08;59.78;;
71805;Laerm;59654;52.216;5.616;2024-02-21T00:37:42;41.48;33.94;56.82;;
71805;Laerm;59654;52.216;5.616;2024-02-21T00:38:13;41.88;33.61;56.88;;
71805;Laerm;59654;52.216;5.616;2024-02-21T00:38:44;42.14;34.17;56.84;;
71805;Laerm;59654;52.216;5.616;2024-02-21T00:39:17;41.36;34.57;56.86;;
71805;Laerm;59654;52.216;5.616;2024-02-21T00:39:48;41.75;33.36;56.89;;
71805;Laerm;59654;52.216;5.616;2024-02-21T00:40:19;40.82;32.75;56.95;;
71805;Laerm;59654;52.216;5.616;2024-02-21T00:40:53;41.64;32.32;56.88;;
71805;Laerm;59654;52.216;5.616;2024-02-21T00:41:24;41.86;32.57;59.05;;
71805;Laerm;59654;52.216;5.616;2024-02-21T00:41:56;42.72;32.70;59.37;;
71805;Laerm;59654;52.216;5.616;2024-02-21T00:42:36;42.59;33.52;59.80;;
71805;Laerm;59654;52.216;5.616;2024-02-21T00:43:07;40.98;32.75;56.82;;
71805;Laerm;59654;52.216;5.616;2024-02-21T00:43:38;43.08;33.38;56.85;;
71805;Laerm;59654;52.216;5.616;2024-02-21T00:44:09;41.74;34.07;56.91;;
71805;Laerm;59654;52.216;5.616;2024-02-21T00:44:41;42.90;33.77;59.50;;
71805;Laerm;59654;52.216;5.616;2024-02-21T00:45:12;43.53;34.56;59.00;;
71805;Laerm;59654;52.216;5.616;2024-02-21T00:45:42;40.73;34.42;56.87;;
71805;Laerm;59654;52.216;5.616;2024-02-21T00:46:13;42.52;34.56;56.89;;
71805;Laerm;59654;52.216;5.616;2024-02-21T00:46:44;41.33;35.04;57.18;;
71805;Laerm;59654;52.216;5.616;2024-02-21T00:47:17;43.86;34.64;59.57;;
71805;Laerm;59654;52.216;5.616;2024-02-21T00:47:48;42.45;33.87;56.91;;
71805;Laerm;59654;52.216;5.616;2024-02-21T00:48:19;41.60;33.89;58.85;;
71805;Laerm;59654;52.216;5.616;2024-02-21T00:48:51;42.12;33.44;59.70;;
71805;Laerm;59654;52.216;5.616;2024-02-21T00:49:21;41.35;33.30;56.86;;
71805;Laerm;59654;52.216;5.616;2024-02-21T00:49:52;41.97;33.36;56.87;;
71805;Laerm;59654;52.216;5.616;2024-02-21T00:50:23;42.52;32.41;56.84;;
71805;Laerm;59654;52.216;5.616;2024-02-21T00:50:54;41.71;33.03;56.86;;
71805;Laerm;59654;52.216;5.616;2024-02-21T00:51:25;40.92;33.25;56.87;;
71805;Laerm;59654;52.216;5.616;2024-02-21T00:51:56;41.10;34.34;56.87;;
71805;Laerm;59654;52.216;5.616;2024-02-21T00:52:29;42.14;34.11;56.90;;
71805;Laerm;59654;52.216;5.616;2024-02-21T00:53:00;42.72;36.19;58.63;;
71805;Laerm;59654;52.216;5.616;2024-02-21T00:53:31;42.04;34.57;56.92;;
71805;Laerm;59654;52.216;5.616;2024-02-21T00:54:02;41.53;32.32;59.42;;
71805;Laerm;59654;52.216;5.616;2024-02-21T00:54:35;42.40;32.54;56.86;;
71805;Laerm;59654;52.216;5.616;2024-02-21T00:55:06;43.24;33.03;59.65;;
71805;Laerm;59654;52.216;5.616;2024-02-21T00:55:37;40.92;32.11;59.98;;
71805;Laerm;59654;52.216;5.616;2024-02-21T00:56:08;42.25;32.23;56.90;;
71805;Laerm;59654;52.216;5.616;2024-02-21T00:56:40;41.37;32.95;56.88;;
71805;Laerm;59654;52.216;5.616;2024-02-21T00:57:11;42.33;32.98;59.61;;
71805;Laerm;59654;52.216;5.616;2024-02-21T00:57:42;42.60;33.13;59.76;;
71805;Laerm;59654;52.216;5.616;2024-02-21T00:58:14;39.87;32.47;58.44;;
71805;Laerm;59654;52.216;5.616;2024-02-21T00:58:45;42.67;32.35;57.01;;
71805;Laerm;59654;52.216;5.616;2024-02-21T00:59:17;42.39;34.03;59.72;;
71805;Laerm;59654;52.216;5.616;2024-02-21T00:59:48;42.50;34.05;56.85;;
71805;Laerm;59654;52.216;5.616;2024-02-21T01:00:19;42.61;33.96;59.72;;
71805;Laerm;59654;52.216;5.616;2024-02-21T01:00:50;40.95;34.19;56.90;;
71805;Laerm;59654;52.216;5.616;2024-02-21T01:01:23;42.06;32.46;56.86;;
71805;Laerm;59654;52.216;5.616;2024-02-21T01:01:54;41.81;32.55;56.81;;
71805;Laerm;59654;52.216;5.616;2024-02-21T01:02:25;42.25;34.44;59.60;;
71805;Laerm;59654;52.216;5.616;2024-02-21T01:02:56;41.92;35.22;56.92;;
71805;Laerm;59654;52.216;5.616;2024-02-21T01:03:29;43.19;36.37;56.92;;
71805;Laerm;59654;52.216;5.616;2024-02-21T01:04:00;42.85;33.79;56.97;;
71805;Laerm;59654;52.216;5.616;2024-02-21T01:04:31;42.77;33.73;59.55;;
71805;Laerm;59654;52.216;5.616;2024-02-21T01:05:04;42.98;33.90;56.90;;
71805;Laerm;59654;52.216;5.616;2024-02-21T01:05:34;43.19;35.06;56.88;;
71805;Laerm;59654;52.216;5.616;2024-02-21T01:06:05;42.05;34.96;59.90;;
71805;Laerm;59654;52.216;5.616;2024-02-21T01:06:37;42.84;34.72;56.86;;
71805;Laerm;59654;52.216;5.616;2024-02-21T01:07:08;42.00;34.51;56.84;;
71805;Laerm;59654;52.216;5.616;2024-02-21T01:07:38;42.43;33.80;56.87;;
71805;Laerm;59654;52.216;5.616;2024-02-21T01:08:09;41.26;33.14;56.84;;
71805;Laerm;59654;52.216;5.616;2024-02-21T01:08:40;41.03;32.89;59.86;;
71805;Laerm;59654;52.216;5.616;2024-02-21T01:09:11;42.04;32.81;56.87;;
71805;Laerm;59654;52.216;5.616;2024-02-21T01:09:43;41.79;33.23;56.84;;
71805;Laerm;59654;52.216;5.616;2024-02-21T01:10:14;42.75;33.54;56.89;;
71805;Laerm;59654;52.216;5.616;2024-02-21T01:10:45;41.36;32.80;56.83;;
71805;Laerm;59654;52.216;5.616;2024-02-21T01:11:16;41.49;33.79;56.88;;
71805;Laerm;59654;52.216;5.616;2024-02-21T01:11:47;43.71;33.29;57.63;;
71805;Laerm;59654;52.216;5.616;2024-02-21T01:12:19;42.06;33.30;59.33;;
71805;Laerm;59654;52.216;5.616;2024-02-21T01:12:50;42.37;33.71;57.17;;
71805;Laerm;59654;52.216;5.616;2024-02-21T01:13:21;41.96;34.43;56.92;;
71805;Laerm;59654;52.216;5.616;2024-02-21T01:13:52;43.47;34.02;58.78;;
71805;Laerm;59654;52.216;5.616;2024-02-21T01:14:22;41.37;33.86;56.84;;
71805;Laerm;59654;52.216;5.616;2024-02-21T01:14:53;43.36;34.17;59.36;;
71805;Laerm;59654;52.216;5.616;2024-02-21T01:15:24;43.03;34.14;56.89;;
71805;Laerm;59654;52.216;5.616;2024-02-21T01:15:55;41.89;33.21;59.83;;
71805;Laerm;59654;52.216;5.616;2024-02-21T01:16:26;41.63;32.83;60.04;;
71805;Laerm;59654;52.216;5.616;2024-02-21T01:16:58;40.52;33.69;56.92;;
71805;Laerm;59654;52.216;5.616;2024-02-21T01:17:30;43.00;33.22;60.05;;
71805;Laerm;59654;52.216;5.616;2024-02-21T01:18:02;42.47;33.38;56.90;;
71805;Laerm;59654;52.216;5.616;2024-02-21T01:18:34;42.55;33.28;56.90;;
71805;Laerm;59654;52.216;5.616;2024-02-21T01:19:07;41.94;33.34;59.92;;
71805;Laerm;59654;52.216;5.616;2024-02-21T01:19:38;42.45;34.29;56.88;;
71805;Laerm;59654;52.216;5.616;2024-02-21T01:20:10;41.43;34.13;59.77;;
71805;Laerm;59654;52.216;5.616;2024-02-21T01:20:48;42.90;34.28;56.82;;
71805;Laerm;59654;52.216;5.616;2024-02-21T01:21:19;41.98;34.20;59.06;;
71805;Laerm;59654;52.216;5.616;2024-02-21T01:21:50;42.66;34.55;56.86;;
71805;Laerm;59654;52.216;5.616;2024-02-21T01:22:24;41.81;33.85;56.78;;
71805;Laerm;59654;52.216;5.616;2024-02-21T01:22:55;41.77;33.55;56.86;;
71805;Laerm;59654;52.216;5.616;2024-02-21T01:23:36;42.65;33.40;59.45;;
71805;Laerm;59654;52.216;5.616;2024-02-21T01:24:07;42.29;32.44;56.81;;
71805;Laerm;59654;52.216;5.616;2024-02-21T01:24:41;42.39;33.07;58.25;;
71805;Laerm;59654;52.216;5.616;2024-02-21T01:25:12;42.66;33.29;57.71;;
71805;Laerm;59654;52.216;5.616;2024-02-21T01:25:44;41.95;32.72;56.78;;
71805;Laerm;59654;52.216;5.616;2024-02-21T01:26:15;41.19;33.08;56.76;;
71805;Laerm;59654;52.216;5.616;2024-02-21T01:26:46;41.79;33.71;59.72;;
71805;Laerm;59654;52.216;5.616;2024-02-21T01:27:17;42.34;34.17;56.81;;
71805;Laerm;59654;52.216;5.616;2024-02-21T01:27:48;42.57;35.03;56.82;;
71805;Laerm;59654;52.216;5.616;2024-02-21T01:28:19;42.25;34.35;56.77;;
71805;Laerm;59654;52.216;5.616;2024-02-21T01:28:53;41.39;34.07;56.82;;
71805;Laerm;59654;52.216;5.616;2024-02-21T01:29:24;41.15;33.38;56.79;;
71805;Laerm;59654;52.216;5.616;2024-02-21T01:29:56;41.08;33.92;57.20;;
71805;Laerm;59654;52.216;5.616;2024-02-21T01:30:32;41.39;33.88;56.83;;
71805;Laerm;59654;52.216;5.616;2024-02-21T01:31:04;42.03;34.22;56.85;;
71805;Laerm;59654;52.216;5.616;2024-02-21T01:31:35;43.08;33.99;56.83;;
71805;Laerm;59654;52.216;5.616;2024-02-21T01:32:07;42.39;33.02;59.01;;
71805;Laerm;59654;52.216;5.616;2024-02-21T01:32:38;41.83;33.46;56.88;;
71805;Laerm;59654;52.216;5.616;2024-02-21T01:33:09;42.19;34.11;56.92;;
71805;Laerm;59654;52.216;5.616;2024-02-21T01:33:40;42.19;33.90;59.65;;
71805;Laerm;59654;52.216;5.616;2024-02-21T01:34:11;43.71;35.09;58.76;;
71805;Laerm;59654;52.216;5.616;2024-02-21T01:34:42;43.08;35.74;56.83;;
71805;Laerm;59654;52.216;5.616;2024-02-21T01:35:14;42.52;34.85;56.86;;
71805;Laerm;59654;52.216;5.616;2024-02-21T01:36:04;42.22;34.85;56.90;;
71805;Laerm;59654;52.216;5.616;2024-02-21T01:36:37;42.95;33.77;56.84;;
71805;Laerm;59654;52.216;5.616;2024-02-21T01:37:08;42.22;32.98;59.56;;
71805;Laerm;59654;52.216;5.616;2024-02-21T01:37:41;43.27;33.63;59.22;;
71805;Laerm;59654;52.216;5.616;2024-02-21T01:38:13;42.13;33.90;56.92;;
71805;Laerm;59654;52.216;5.616;2024-02-21T01:38:44;44.90;38.44;57.45;;
71805;Laerm;59654;52.216;5.616;2024-02-21T01:39:15;42.85;36.51;56.83;;
71805;Laerm;59654;52.216;5.616;2024-02-21T01:39:45;42.58;33.79;56.84;;
71805;Laerm;59654;52.216;5.616;2024-02-21T01:40:16;43.35;33.70;56.89;;
71805;Laerm;59654;52.216;5.616;2024-02-21T01:40:48;42.64;33.93;56.82;;
71805;Laerm;59654;52.216;5.616;2024-02-21T01:41:19;41.54;34.20;56.80;;
71805;Laerm;59654;52.216;5.616;2024-02-21T01:41:50;41.65;34.56;56.94;;
71805;Laerm;59654;52.216;5.616;2024-02-21T01:42:27;41.46;34.76;56.80;;
71805;Laerm;59654;52.216;5.616;2024-02-21T01:42:58;41.57;34.17;56.80;;
71805;Laerm;59654;52.216;5.616;2024-02-21T01:43:30;41.73;33.76;59.61;;
71805;Laerm;59654;52.216;5.616;2024-02-21T01:44:01;42.97;32.97;56.82;;
71805;Laerm;59654;52.216;5.616;2024-02-21T01:44:32;41.53;33.04;56.83;;
71805;Laerm;59654;52.216;5.616;2024-02-21T01:45:03;42.26;33.21;56.84;;
71805;Laerm;59654;52.216;5.616;2024-02-21T01:45:35;42.33;32.72;56.77;;
71805;Laerm;59654;52.216;5.616;2024-02-21T01:46:05;43.12;33.09;56.84;;
71805;Laerm;59654;52.216;5.616;2024-02-21T01:46:37;44.41;33.49;56.87;;
71805;Laerm;59654;52.216;5.616;2024-02-21T01:47:11;42.76;33.34;58.80;;
71805;Laerm;59654;52.216;5.616;2024-02-21T01:47:44;42.65;34.92;56.89;;
71805;Laerm;59654;52.216;5.616;2024-02-21T01:48:17;42.11;35.61;57.01;;
71805;Laerm;59654;52.216;5.616;2024-02-21T01:48:51;43.48;35.28;57.05;;
71805;Laerm;59654;52.216;5.616;2024-02-21T01:49:22;43.29;34.58;58.86;;
71805;Laerm;59654;52.216;5.616;2024-02-21T01:49:59;41.99;34.65;58.62;;
71805;Laerm;59654;52.216;5.616;2024-02-21T01:50:33;41.89;34.69;56.84;;
71805;Laerm;59654;52.216;5.616;2024-02-21T01:51:04;43.19;33.48;56.81;;
71805;Laerm;59654;52.216;5.616;2024-02-21T01:51:39;42.62;33.08;58.78;;
71805;Laerm;59654;52.216;5.616;2024-02-21T01:52:14;43.64;33.49;56.88;;
71805;Laerm;59654;52.216;5.616;2024-02-21T01:52:55;42.06;33.94;56.82;;
71805;Laerm;59654;52.216;5.616;2024-02-21T01:53:32;41.57;33.50;56.88;;
71805;Laerm;59654;52.216;5.616;2024-02-21T01:54:07;42.45;33.92;56.85;;
71805;Laerm;59654;52.216;5.616;2024-02-21T01:54:39;42.37;35.14;56.81;;
71805;Laerm;59654;52.216;5.616;2024-02-21T01:55:11;43.13;33.99;59.70;;
71805;Laerm;59654;52.216;5.616;2024-02-21T01:55:48;42.30;33.46;56.85;;
71805;Laerm;59654;52.216;5.616;2024-02-21T01:56:19;42.79;34.15;56.95;;
71805;Laerm;59654;52.216;5.616;2024-02-21T01:56:50;41.76;34.29;56.85;;
71805;Laerm;59654;52.216;5.616;2024-02-21T01:57:22;42.35;34.30;56.84;;
71805;Laerm;59654;52.216;5.616;2024-02-21T01:58:01;41.89;35.21;56.83;;
71805;Laerm;59654;52.216;5.616;2024-02-21T01:58:37;43.38;33.58;56.81;;
71805;Laerm;59654;52.216;5.616;2024-02-21T01:59:11;43.36;33.94;58.76;;
71805;Laerm;59654;52.216;5.616;2024-02-21T01:59:44;43.35;34.45;59.64;;
71805;Laerm;59654;52.216;5.616;2024-02-21T02:00:16;42.93;35.19;56.88;;
71805;Laerm;59654;52.216;5.616;2024-02-21T02:00:48;41.92;34.15;56.84;;
71805;Laerm;59654;52.216;5.616;2024-02-21T02:01:19;42.26;32.97;56.83;;
71805;Laerm;59654;52.216;5.616;2024-02-21T02:01:51;41.82;33.18;56.83;;
71805;Laerm;59654;52.216;5.616;2024-02-21T02:02:24;42.16;32.16;56.80;;
71805;Laerm;59654;52.216;5.616;2024-02-21T02:02:57;42.73;32.97;59.64;;
71805;Laerm;59654;52.216;5.616;2024-02-21T02:03:42;42.56;32.96;59.71;;
71805;Laerm;59654;52.216;5.616;2024-02-21T02:04:13;43.04;34.15;57.04;;
71805;Laerm;59654;52.216;5.616;2024-02-21T02:04:46;42.71;34.96;56.90;;
71805;Laerm;59654;52.216;5.616;2024-02-21T02:05:18;42.36;34.88;56.86;;
71805;Laerm;59654;52.216;5.616;2024-02-21T02:05:52;42.98;34.51;59.58;;
71805;Laerm;59654;52.216;5.616;2024-02-21T02:06:22;42.13;33.87;56.84;;
71805;Laerm;59654;52.216;5.616;2024-02-21T02:06:55;41.95;34.32;56.81;;
71805;Laerm;59654;52.216;5.616;2024-02-21T02:07:26;43.35;36.42;56.92;;
71805;Laerm;59654;52.216;5.616;2024-02-21T02:07:57;43.42;33.91;59.81;;
71805;Laerm;59654;52.216;5.616;2024-02-21T02:08:28;44.10;35.49;58.56;;
71805;Laerm;59654;52.216;5.616;2024-02-21T02:08:59;43.86;35.03;59.87;;
71805;Laerm;59654;52.216;5.616;2024-02-21T02:09:30;42.23;34.81;56.86;;
71805;Laerm;59654;52.216;5.616;2024-02-21T02:10:02;43.66;33.99;56.80;;
71805;Laerm;59654;52.216;5.616;2024-02-21T02:10:33;42.88;34.38;56.82;;
71805;Laerm;59654;52.216;5.616;2024-02-21T02:11:04;42.74;34.69;58.94;;
71805;Laerm;59654;52.216;5.616;2024-02-21T02:11:35;42.72;34.60;56.83;;
71805;Laerm;59654;52.216;5.616;2024-02-21T02:12:07;41.83;34.39;56.83;;
71805;Laerm;59654;52.216;5.616;2024-02-21T02:12:38;42.26;34.47;56.80;;
71805;Laerm;59654;52.216;5.616;2024-02-21T02:13:09;41.94;35.16;56.82;;
71805;Laerm;59654;52.216;5.616;2024-02-21T02:13:55;42.54;33.38;56.79;;
71805;Laerm;59654;52.216;5.616;2024-02-21T02:14:25;41.81;33.04;56.80;;
71805;Laerm;59654;52.216;5.616;2024-02-21T02:15:01;41.55;33.03;59.94;;
71805;Laerm;59654;52.216;5.616;2024-02-21T02:15:46;43.21;33.17;56.95;;
71805;Laerm;59654;52.216;5.616;2024-02-21T02:16:19;42.69;33.15;56.83;;
71805;Laerm;59654;52.216;5.616;2024-02-21T02:16:50;42.32;33.71;56.81;;
71805;Laerm;59654;52.216;5.616;2024-02-21T02:17:21;43.09;33.32;58.14;;
71805;Laerm;59654;52.216;5.616;2024-02-21T02:17:52;42.83;34.26;58.57;;
71805;Laerm;59654;52.216;5.616;2024-02-21T02:18:32;41.28;33.26;56.84;;
71805;Laerm;59654;52.216;5.616;2024-02-21T02:19:03;41.78;35.32;57.84;;
71805;Laerm;59654;52.216;5.616;2024-02-21T02:19:36;43.20;36.55;56.94;;
71805;Laerm;59654;52.216;5.616;2024-02-21T02:20:08;43.80;35.34;56.88;;
71805;Laerm;59654;52.216;5.616;2024-02-21T02:20:41;42.40;35.36;56.80;;
71805;Laerm;59654;52.216;5.616;2024-02-21T02:21:30;42.91;35.51;58.23;;
71805;Laerm;59654;52.216;5.616;2024-02-21T02:22:12;43.19;35.60;59.59;;
71805;Laerm;59654;52.216;5.616;2024-02-21T02:22:47;42.13;34.16;56.84;;
71805;Laerm;59654;52.216;5.616;2024-02-21T02:23:26;41.71;33.88;56.83;;
71805;Laerm;59654;52.216;5.616;2024-02-21T02:23:59;42.05;33.17;58.82;;
71805;Laerm;59654;52.216;5.616;2024-02-21T02:24:30;42.53;33.60;58.65;;
71805;Laerm;59654;52.216;5.616;2024-02-21T02:25:01;42.54;32.69;56.86;;
71805;Laerm;59654;52.216;5.616;2024-02-21T02:25:32;41.51;33.38;56.86;;
71805;Laerm;59654;52.216;5.616;2024-02-21T02:26:03;41.33;33.44;56.82;;
71805;Laerm;59654;52.216;5.616;2024-02-21T02:26:42;42.61;33.93;59.54;;
71805;Laerm;59654;52.216;5.616;2024-02-21T02:27:13;41.99;34.53;56.83;;
71805;Laerm;59654;52.216;5.616;2024-02-21T02:27:44;41.15;34.26;57.21;;
71805;Laerm;59654;52.216;5.616;2024-02-21T02:28:16;42.86;34.93;57.00;;
71805;Laerm;59654;52.216;5.616;2024-02-21T02:28:47;41.09;35.31;56.86;;
71805;Laerm;59654;52.216;5.616;2024-02-21T02:29:19;42.77;34.32;59.76;;
71805;Laerm;59654;52.216;5.616;2024-02-21T02:29:51;42.39;35.40;56.85;;
71805;Laerm;59654;52.216;5.616;2024-02-21T02:30:23;42.59;34.41;56.86;;
71805;Laerm;59654;52.216;5.616;2024-02-21T02:30:54;41.64;33.20;56.84;;
71805;Laerm;59654;52.216;5.616;2024-02-21T02:31:25;42.00;34.49;56.85;;
71805;Laerm;59654;52.216;5.616;2024-02-21T02:31:56;43.77;35.16;59.67;;
71805;Laerm;59654;52.216;5.616;2024-02-21T02:32:27;41.79;33.55;56.87;;
71805;Laerm;59654;52.216;5.616;2024-02-21T02:32:59;43.81;33.02;56.86;;
71805;Laerm;59654;52.216;5.616;2024-02-21T02:33:30;41.64;33.56;56.85;;
71805;Laerm;59654;52.216;5.616;2024-02-21T02:34:01;42.64;34.31;56.81;;
71805;Laerm;59654;52.216;5.616;2024-02-21T02:34:34;41.13;33.76;56.88;;
71805;Laerm;59654;52.216;5.616;2024-02-21T02:35:05;42.52;34.25;56.84;;
71805;Laerm;59654;52.216;5.616;2024-02-21T02:35:36;42.57;35.14;57.43;;
71805;Laerm;59654;52.216;5.616;2024-02-21T02:36:07;44.58;35.99;59.55;;
71805;Laerm;59654;52.216;5.616;2024-02-21T02:36:52;43.02;34.36;58.71;;
71805;Laerm;59654;52.216;5.616;2024-02-21T02:37:23;42.26;34.21;56.82;;
71805;Laerm;59654;52.216;5.616;2024-02-21T02:37:53;43.75;36.82;57.42;;
71805;Laerm;59654;52.216;5.616;2024-02-21T02:38:26;42.38;35.01;56.93;;
71805;Laerm;59654;52.216;5.616;2024-02-21T02:38:58;41.18;33.71;56.80;;
71805;Laerm;59654;52.216;5.616;2024-02-21T02:39:29;41.87;34.50;56.83;;
71805;Laerm;59654;52.216;5.616;2024-02-21T02:40:08;42.52;34.43;58.85;;
71805;Laerm;59654;52.216;5.616;2024-02-21T02:40:39;42.17;34.77;56.84;;
71805;Laerm;59654;52.216;5.616;2024-02-21T02:41:14;41.79;34.56;56.80;;
71805;Laerm;59654;52.216;5.616;2024-02-21T02:41:45;41.93;34.63;56.80;;
71805;Laerm;59654;52.216;5.616;2024-02-21T02:42:18;42.28;34.07;59.64;;
71805;Laerm;59654;52.216;5.616;2024-02-21T02:42:50;42.19;33.81;59.38;;
71805;Laerm;59654;52.216;5.616;2024-02-21T02:43:22;42.22;33.63;56.84;;
71805;Laerm;59654;52.216;5.616;2024-02-21T02:43:53;41.17;33.32;56.82;;
71805;Laerm;59654;52.216;5.616;2024-02-21T02:44:25;41.97;33.14;56.85;;
71805;Laerm;59654;52.216;5.616;2024-02-21T02:44:56;42.98;32.42;58.21;;
71805;Laerm;59654;52.216;5.616;2024-02-21T02:45:27;42.01;32.35;56.82;;
71805;Laerm;59654;52.216;5.616;2024-02-21T02:45:58;42.51;32.90;57.14;;
71805;Laerm;59654;52.216;5.616;2024-02-21T02:46:29;41.60;32.76;56.84;;
71805;Laerm;59654;52.216;5.616;2024-02-21T02:47:00;41.59;32.25;56.82;;
71805;Laerm;59654;52.216;5.616;2024-02-21T02:47:31;41.89;33.13;56.81;;
71805;Laerm;59654;52.216;5.616;2024-02-21T02:48:02;41.95;33.23;56.83;;
71805;Laerm;59654;52.216;5.616;2024-02-21T02:48:33;42.71;34.10;56.85;;
71805;Laerm;59654;52.216;5.616;2024-02-21T02:49:04;41.69;34.34;56.85;;
71805;Laerm;59654;52.216;5.616;2024-02-21T02:49:35;41.92;34.06;56.90;;
71805;Laerm;59654;52.216;5.616;2024-02-21T02:50:07;41.68;34.27;56.83;;
71805;Laerm;59654;52.216;5.616;2024-02-21T02:50:38;43.28;33.74;56.86;;
71805;Laerm;59654;52.216;5.616;2024-02-21T02:51:09;41.56;33.41;56.84;;
71805;Laerm;59654;52.216;5.616;2024-02-21T02:51:43;42.59;33.14;56.88;;
71805;Laerm;59654;52.216;5.616;2024-02-21T02:52:16;42.26;32.57;56.83;;
71805;Laerm;59654;52.216;5.616;2024-02-21T02:52:47;42.80;33.29;56.86;;
71805;Laerm;59654;52.216;5.616;2024-02-21T02:53:19;42.13;34.38;56.95;;
71805;Laerm;59654;52.216;5.616;2024-02-21T02:53:50;42.60;33.22;56.84;;
71805;Laerm;59654;52.216;5.616;2024-02-21T02:54:21;42.39;32.47;56.83;;
71805;Laerm;59654;52.216;5.616;2024-02-21T02:54:54;41.47;33.28;56.83;;
71805;Laerm;59654;52.216;5.616;2024-02-21T02:55:26;42.74;33.11;56.82;;
71805;Laerm;59654;52.216;5.616;2024-02-21T02:55:59;42.27;33.92;56.96;;
71805;Laerm;59654;52.216;5.616;2024-02-21T02:56:30;42.21;34.10;58.37;;
71805;Laerm;59654;52.216;5.616;2024-02-21T02:57:01;41.95;33.79;56.84;;
71805;Laerm;59654;52.216;5.616;2024-02-21T02:57:35;42.14;33.88;56.81;;
71805;Laerm;59654;52.216;5.616;2024-02-21T02:58:06;41.93;33.78;58.69;;
71805;Laerm;59654;52.216;5.616;2024-02-21T02:58:39;42.80;33.22;56.94;;
71805;Laerm;59654;52.216;5.616;2024-02-21T02:59:09;41.97;33.30;56.82;;
71805;Laerm;59654;52.216;5.616;2024-02-21T02:59:40;41.47;32.60;56.82;;
71805;Laerm;59654;52.216;5.616;2024-02-21T03:00:20;41.46;32.97;57.48;;